createdAt,value
2023-05-14T18:40:30.129Z,18.20
2023-05-14T18:42:57.218Z,18.58
2023-05-14T18:45:24.598Z,18.45
2023-05-14T18:47:52.052Z,18.24
2023-05-14T18:50:19.738Z,18.07
2023-05-14T18:52:46.894Z,17.79
2023-05-14T18:55:14.360Z,17.39
2023-05-14T18:57:42.911Z,16.88
2023-05-14T19:00:11.493Z,17.05
2023-05-14T19:02:38.948Z,16.32
2023-05-14T19:05:06.989Z,16.20
2023-05-14T19:07:34.362Z,16.00
2023-05-14T19:10:01.737Z,15.84
2023-05-14T19:12:29.095Z,15.59
2023-05-14T19:14:57.634Z,15.50
2023-05-14T19:17:24.869Z,15.21
2023-05-14T19:19:52.072Z,15.04
2023-05-14T19:22:19.800Z,14.91
2023-05-14T19:24:46.983Z,15.10
2023-05-14T19:27:14.106Z,14.93
2023-05-14T19:29:41.152Z,14.87
2023-05-14T19:32:09.903Z,15.34
2023-05-14T19:34:37.073Z,15.25
2023-05-14T19:37:04.596Z,15.56
2023-05-14T19:39:31.808Z,15.67
2023-05-14T19:41:59.082Z,15.03
2023-05-14T19:44:26.366Z,14.80
2023-05-14T19:46:59.327Z,14.79
2023-05-14T19:49:28.046Z,14.50
2023-05-14T19:51:55.177Z,14.48
2023-05-14T19:54:22.381Z,14.50
2023-05-14T19:56:49.666Z,14.28
2023-05-14T19:59:16.825Z,14.36
2023-05-14T20:01:44.172Z,14.45
2023-05-14T20:04:11.425Z,14.37
2023-05-14T20:06:40.026Z,14.52
2023-05-14T20:09:07.386Z,14.18
2023-05-14T20:11:35.588Z,14.08
2023-05-14T20:14:02.790Z,14.19
2023-05-14T20:16:30.199Z,13.89
2023-05-14T20:18:57.516Z,13.90
2023-05-14T20:21:24.808Z,14.12
2023-05-14T20:23:53.929Z,14.17
2023-05-14T20:26:21.332Z,13.97
2023-05-14T20:28:48.465Z,14.10
2023-05-14T20:31:15.650Z,14.08
2023-05-14T20:33:42.902Z,14.05
